createdAt,value
2019-04-04T00:00:52.241Z,10.08
2019-04-04T00:01:50.870Z,10.32
2019-04-04T00:02:49.749Z,10.38
2019-04-04T00:03:48.021Z,10.48
2019-04-04T00:04:46.838Z,10.66
2019-04-04T00:05:45.479Z,10.55
2019-04-04T00:06:44.399Z,10.41
2019-04-04T00:07:43.096Z,10.38
2019-04-04T00:08:41.678Z,10.42
2019-04-04T00:09:40.509Z,10.29
2019-04-04T00:10:39.132Z,10.33
2019-04-04T00:11:37.692Z,10.4
2019-04-04T00:12:36.945Z,10.41
2019-04-04T00:13:34.906Z,10.42
2019-04-04T00:14:33.453Z,10.45
2019-04-04T00:15:32.134Z,10.51
2019-04-04T00:16:30.813Z,10.4
2019-04-04T00:17:29.434Z,10.17
2019-04-04T00:18:28.109Z,9.96
2019-04-04T00:19:27.796Z,10.07
2019-04-04T00:20:25.439Z,10.3
2019-04-04T00:21:24.042Z,10.42
2019-04-04T00:22:22.651Z,10.52
2019-04-04T00:23:21.263Z,10.56
2019-04-04T00:24:19.802Z,10.73
2019-04-04T00:25:18.465Z,10.38
2019-04-04T00:26:17.192Z,10.44
2019-04-04T00:27:15.820Z,10.51
2019-04-04T00:28:14.874Z,10.66
2019-04-04T00:29:13.179Z,10.64
2019-04-04T00:30:11.752Z,10.34
2019-04-04T00:31:10.420Z,10.38
2019-04-04T00:32:09.278Z,10.52
2019-04-04T00:33:07.850Z,10.41
2019-04-04T00:34:06.563Z,10.52
2019-04-04T00:35:05.233Z,10.6
2019-04-04T00:36:03.802Z,10.48
2019-04-04T00:37:04.360Z,10.56
2019-04-04T00:38:01.309Z,10.42
2019-04-04T00:38:59.860Z,10.4
2019-04-04T00:39:58.479Z,10.47
2019-04-04T00:40:57.178Z,10.42
2019-04-04T00:41:55.754Z,10.53
2019-04-04T00:42:54.334Z,10.48
2019-04-04T00:43:53.046Z,10.61
2019-04-04T00:44:51.573Z,10.7
2019-04-04T00:45:50.144Z,10.71
2019-04-04T00:46:49.123Z,10.59
2019-04-04T00:47:47.709Z,10.68
2019-04-04T00:48:46.262Z,10.59
2019-04-04T00:49:44.847Z,10.7
2019-04-04T00:50:43.439Z,10.71
2019-04-04T00:51:42.002Z,10.68
2019-04-04T00:52:41.311Z,10.7
2019-04-04T00:53:39.097Z,10.78
2019-04-04T00:54:37.662Z,10.73
2019-04-04T00:55:36.409Z,10.82
2019-04-04T00:56:35.180Z,10.81
2019-04-04T00:57:33.779Z,10.84
2019-04-04T00:58:32.434Z,10.86
2019-04-04T00:59:31.051Z,10.88
2019-04-04T01:00:29.635Z,10.86
2019-04-04T01:01:28.227Z,10.84
2019-04-04T01:02:27.406Z,10.86
2019-04-04T01:03:25.496Z,10.97
2019-04-04T01:04:24.047Z,10.84
2019-04-04T01:05:22.900Z,10.99
2019-04-04T01:06:21.472Z,11.03
2019-04-04T01:07:20.033Z,11.1
2019-04-04T01:08:18.671Z,11.09
2019-04-04T01:09:17.248Z,11
2019-04-04T01:10:18.683Z,10.96
2019-04-04T01:11:14.363Z,11.02
2019-04-04T01:12:13.104Z,11.07
2019-04-04T01:13:11.665Z,11.04
2019-04-04T01:14:10.188Z,11.02
2019-04-04T01:15:09.102Z,10.84
2019-04-04T01:16:07.664Z,10.84
2019-04-04T01:17:06.301Z,10.74
2019-04-04T01:18:06.037Z,10.78
2019-04-04T01:19:03.446Z,10.82
2019-04-04T01:20:46.924Z,10.91
2019-04-04T01:21:45.511Z,11.03
2019-04-04T01:22:44.101Z,10.99
2019-04-04T01:23:43.081Z,11.06
2019-04-04T01:24:41.648Z,11.11
2019-04-04T01:25:40.226Z,11.07
2019-04-04T01:26:38.891Z,11.09
2019-04-04T01:27:37.639Z,11.06
2019-04-04T01:28:37.087Z,11.07
2019-04-04T01:29:34.762Z,10.97
2019-04-04T01:30:33.468Z,10.99
2019-04-04T01:31:32.046Z,10.91
2019-04-04T01:32:30.754Z,10.89
2019-04-04T01:33:29.420Z,10.91
2019-04-04T01:34:28.034Z,11.07
2019-04-04T01:35:26.566Z,11
2019-04-04T01:36:25.883Z,10.94
2019-04-04T01:37:25.163Z,10.91
2019-04-04T01:38:22.441Z,10.99
2019-04-04T01:39:21.300Z,10.85
2019-04-04T01:40:19.870Z,10.88
2019-04-04T01:41:18.459Z,10.84
2019-04-04T01:42:17.082Z,10.82
2019-04-04T01:43:15.637Z,10.89
2019-04-04T01:44:14.173Z,10.79
2019-04-04T01:45:13.649Z,10.61
2019-04-04T01:46:12.936Z,10.64
2019-04-04T01:47:09.917Z,10.59
2019-04-04T01:48:08.674Z,10.63
2019-04-04T01:49:07.412Z,10.67
2019-04-04T01:50:06.011Z,10.53
2019-04-04T01:51:07.526Z,10.51
2019-04-04T01:52:03.429Z,10.48
2019-04-04T01:53:01.884Z,10.47
2019-04-04T01:54:00.970Z,10.51
2019-04-04T01:55:02.943Z,10.36
2019-04-04T01:55:57.949Z,10.53
2019-04-04T01:56:56.633Z,10.6
2019-04-04T02:00:35.536Z,10.7
2019-04-04T02:01:34.127Z,10.79
2019-04-04T02:02:32.815Z,10.76
2019-04-04T02:03:31.413Z,10.74
2019-04-04T02:04:29.951Z,10.71
2019-04-04T02:05:28.643Z,10.84
2019-04-04T02:06:28.533Z,10.84
2019-04-04T02:07:25.965Z,10.73
2019-04-04T02:08:24.506Z,10.82
2019-04-04T02:09:23.264Z,10.76
2019-04-04T02:10:21.830Z,10.89
2019-04-04T02:11:20.424Z,10.92
2019-04-04T02:12:19.115Z,10.92
2019-04-04T02:13:17.717Z,10.96
2019-04-04T02:14:16.319Z,11
2019-04-04T02:15:15.164Z,11.14
2019-04-04T02:28:29.776Z,11
2019-04-04T02:29:28.310Z,11.07
2019-04-04T02:30:26.995Z,10.99
2019-04-04T02:31:25.528Z,10.88
2019-04-04T02:32:26.563Z,10.74
2019-04-04T02:33:22.722Z,10.81
2019-04-04T02:34:21.260Z,10.74
2019-04-04T02:37:01.423Z,10.63
2019-04-04T02:37:59.991Z,10.74
2019-04-04T02:38:59.995Z,10.78
2019-04-04T02:39:57.367Z,10.84
2019-04-04T02:40:55.908Z,10.61
2019-04-04T02:41:54.482Z,10.64
2019-04-04T02:42:55.128Z,10.63
2019-04-04T02:43:51.880Z,10.71
2019-04-04T02:44:50.417Z,10.81
2019-04-04T02:45:49.306Z,10.84
2019-04-04T02:46:47.822Z,10.89
2019-04-04T02:47:50.096Z,10.89
2019-04-04T02:48:45.105Z,10.99
2019-04-04T02:49:44.175Z,11.06
2019-04-04T02:50:42.836Z,11.02
2019-04-04T02:51:41.631Z,11.14
2019-04-04T02:52:40.074Z,11.09
2019-04-04T02:53:38.722Z,11.21
2019-04-04T02:54:37.250Z,11.11
2019-04-04T02:55:35.835Z,11.15
2019-04-04T02:56:35.947Z,11.22
2019-04-04T02:57:33.336Z,11.17
2019-04-04T02:58:31.858Z,11.04
2019-04-04T02:59:30.555Z,11.09
2019-04-04T03:00:29.288Z,11.02
2019-04-04T03:01:31.584Z,11.02
2019-04-04T03:02:26.434Z,10.99
2019-04-04T03:03:25.134Z,10.91
2019-04-04T03:04:23.669Z,10.92
2019-04-04T03:05:22.265Z,10.94
2019-04-04T03:06:23.779Z,11.07
2019-04-04T03:07:19.491Z,11.03
2019-04-04T03:08:18.008Z,11.09
2019-04-04T03:09:17.502Z,11.03
2019-04-04T03:10:16.739Z,10.99
2019-04-04T03:11:15.010Z,10.96
2019-04-04T03:12:13.576Z,11
2019-04-04T03:13:12.188Z,11
2019-04-04T03:14:10.809Z,11.03
2019-04-04T03:15:10.237Z,10.88
2019-04-04T03:16:08.014Z,10.81
2019-04-04T03:17:06.863Z,10.84
2019-04-04T03:18:05.647Z,10.85
2019-04-04T03:19:04.155Z,10.92
2019-04-04T03:20:02.703Z,10.94
2019-04-04T03:21:01.267Z,10.99
2019-04-04T03:21:59.853Z,10.84
2019-04-04T03:23:00.478Z,10.96
2019-04-04T03:23:57.219Z,10.97
2019-04-04T03:24:55.786Z,10.99
2019-04-04T03:25:54.444Z,11.02
2019-04-04T03:26:53.624Z,11.02
2019-04-04T03:27:51.681Z,11.02
2019-04-04T03:28:50.238Z,11.1
2019-04-04T03:29:48.758Z,11.1
2019-04-04T03:30:54.780Z,11.19
2019-04-04T03:31:45.904Z,11.17
2019-04-04T03:32:51.272Z,11.07
2019-04-04T03:33:43.235Z,10.96
2019-04-04T03:34:47.284Z,11.03
2019-04-04T03:35:40.639Z,11.09
2019-04-04T03:36:39.266Z,11.04
2019-04-04T03:37:40.342Z,11.11
2019-04-04T03:38:36.417Z,11.19
2019-04-04T03:39:34.950Z,11
2019-04-04T03:40:33.513Z,10.94
2019-04-04T03:41:35.761Z,10.99
2019-04-04T03:42:30.622Z,10.92
2019-04-04T03:43:29.211Z,10.96
2019-04-04T03:44:27.808Z,10.89
2019-04-04T03:45:27.517Z,10.76
2019-04-04T03:46:24.963Z,10.84
2019-04-04T03:47:23.575Z,10.85
2019-04-04T03:48:22.426Z,10.96
2019-04-04T03:49:24.280Z,11
2019-04-04T03:50:19.675Z,10.82
2019-04-04T03:51:18.290Z,10.82
2019-04-04T03:52:16.970Z,10.82
2019-04-04T03:53:17.262Z,10.89
2019-04-04T03:54:14.429Z,10.92
2019-04-04T03:55:13.044Z,10.86
2019-04-04T03:56:11.592Z,10.91
2019-04-04T03:57:12.081Z,10.99
2019-04-04T03:58:08.714Z,10.84
2019-04-04T03:59:07.261Z,10.79
2019-04-04T04:00:07.189Z,10.84
2019-04-04T04:01:04.436Z,10.79
2019-04-04T04:02:03.219Z,10.94
2019-04-04T04:03:01.786Z,10.97
2019-04-04T04:04:00.730Z,11.07
2019-04-04T04:05:00.861Z,11
2019-04-04T04:05:57.870Z,11.06
2019-04-04T04:06:56.445Z,11.02
2019-04-04T04:07:55.071Z,10.99
2019-04-04T04:08:54.886Z,11.1
2019-04-04T04:09:52.226Z,11.19
2019-04-04T04:10:51.106Z,11.29
2019-04-04T04:11:49.673Z,11.29
2019-04-04T04:12:48.280Z,11.09
2019-04-04T04:13:49.792Z,11.03
2019-04-04T04:14:45.662Z,10.84
2019-04-04T04:15:44.230Z,10.92
2019-04-04T04:16:42.908Z,10.99
2019-04-04T04:17:44.986Z,11.06
2019-04-04T04:18:40.320Z,10.99
2019-04-04T04:19:38.963Z,11.02
2019-04-04T04:20:37.941Z,10.91
2019-04-04T04:21:36.045Z,11.03
2019-04-04T04:22:34.647Z,11.1
2019-04-04T04:23:33.327Z,11.18
2019-04-04T04:24:31.871Z,11.22
2019-04-04T04:25:35.092Z,11.14
2019-04-04T04:26:29.305Z,10.99
2019-04-04T04:27:27.859Z,10.92
2019-04-04T04:28:26.578Z,10.96
2019-04-04T04:29:29.343Z,10.96
2019-04-04T04:30:23.791Z,10.99
2019-04-04T04:31:22.324Z,11.09
2019-04-04T04:32:21.726Z,11
2019-04-04T04:33:19.698Z,10.89
2019-04-04T04:34:18.241Z,10.86
2019-04-04T04:35:17.206Z,10.96
2019-04-04T04:36:16.450Z,11
2019-04-04T04:37:14.305Z,11.03
2019-04-04T04:38:12.857Z,11.07
2019-04-04T04:39:11.440Z,11.1
2019-04-04T04:40:13.593Z,10.99
2019-04-04T04:41:08.619Z,11
2019-04-04T04:42:07.351Z,11.04
2019-04-04T04:43:06.033Z,10.89
2019-04-04T04:44:05.476Z,11
2019-04-04T04:45:03.438Z,11.02
2019-04-04T04:46:01.981Z,11.09
2019-04-04T04:47:00.557Z,10.82
2019-04-04T04:47:59.279Z,10.88
2019-04-04T04:48:57.821Z,10.79
2019-04-04T04:49:56.443Z,10.85
2019-04-04T04:50:55.217Z,11
2019-04-04T04:51:53.722Z,10.96
2019-04-04T04:52:52.352Z,11.04
2019-04-04T04:53:51.294Z,11.1
2019-04-04T04:54:49.512Z,11.15
2019-04-04T04:55:48.076Z,11.1
2019-04-04T04:56:46.651Z,11.09
2019-04-04T04:57:45.308Z,11.07
2019-04-04T04:58:43.844Z,10.99
2019-04-04T04:59:44.284Z,11.1
2019-04-04T05:00:41.309Z,11.07
2019-04-04T05:01:40.678Z,11.15
2019-04-04T05:02:38.604Z,11.21
2019-04-04T05:03:37.253Z,11.19
2019-04-04T05:04:35.806Z,11.19
2019-04-04T05:05:34.380Z,11
2019-04-04T05:06:35.186Z,10.92
2019-04-04T05:07:31.493Z,10.94
2019-04-04T05:08:30.090Z,10.94
2019-04-04T05:09:28.705Z,11.07
2019-04-04T05:10:27.366Z,11.04
2019-04-04T05:11:25.984Z,11.04
2019-04-04T05:12:24.744Z,11.17
2019-04-04T05:13:24.741Z,10.97
2019-04-04T05:14:21.937Z,10.94
2019-04-04T05:15:21.339Z,10.79
2019-04-04T05:16:19.027Z,10.82
2019-04-04T05:17:17.669Z,10.84
2019-04-04T05:18:17.049Z,10.81
2019-04-04T05:19:14.872Z,10.91
2019-04-04T05:20:13.562Z,10.89
2019-04-04T05:21:24.039Z,11.02
2019-04-04T05:22:10.858Z,11.07
2019-04-04T05:23:11.055Z,11.04
2019-04-04T05:24:08.297Z,10.92
2019-04-04T05:25:08.609Z,10.81
2019-04-04T05:26:05.620Z,10.79
2019-04-04T05:27:05.986Z,10.73
2019-04-04T05:28:04.826Z,10.82
2019-04-04T05:29:01.568Z,10.92
2019-04-04T05:30:00.148Z,10.96
2019-04-04T05:30:58.719Z,10.99
2019-04-04T05:31:57.259Z,10.89
2019-04-04T05:32:56.458Z,10.84
2019-04-04T05:33:54.549Z,10.88
2019-04-04T05:34:53.127Z,10.85
2019-04-04T05:35:51.934Z,10.71
2019-04-04T05:36:50.630Z,10.88
2019-04-04T05:37:49.275Z,10.78
2019-04-04T05:38:47.870Z,10.89
2019-04-04T05:39:47.023Z,10.82
2019-04-04T05:40:45.266Z,10.96
2019-04-04T05:41:43.774Z,10.89
2019-04-04T05:42:42.346Z,10.88
2019-04-04T05:43:41.143Z,10.89
2019-04-04T05:44:41.589Z,10.85
2019-04-04T05:45:38.278Z,10.97
2019-04-04T05:46:37.030Z,11.06
2019-04-04T05:47:35.595Z,11.18
2019-04-04T05:48:34.209Z,11.14
2019-04-04T05:49:32.966Z,11.19
2019-04-04T05:50:31.664Z,11.17
2019-04-04T05:51:30.242Z,11.18
2019-04-04T05:52:30.432Z,11.06
2019-04-04T05:53:27.689Z,10.97
2019-04-04T05:54:26.216Z,11.09
2019-04-04T05:55:24.849Z,10.97
2019-04-04T05:56:24.331Z,10.84
2019-04-04T05:57:22.030Z,10.91
2019-04-04T05:58:22.474Z,10.94
2019-04-04T05:59:19.576Z,10.79
2019-04-04T06:00:18.107Z,10.78
2019-04-04T06:01:16.694Z,10.86
2019-04-04T06:02:15.272Z,10.89
2019-04-04T06:03:15.141Z,10.97
2019-04-04T06:04:12.584Z,11
2019-04-04T06:05:11.362Z,11.15
2019-04-04T06:06:10.560Z,10.99
2019-04-04T06:07:08.589Z,10.94
2019-04-04T06:08:08.078Z,10.94
2019-04-04T06:09:05.810Z,10.97
2019-04-04T06:10:04.355Z,10.97
2019-04-04T06:11:02.913Z,11.06
2019-04-04T06:12:01.530Z,11.09
2019-04-04T06:13:00.077Z,11.17
2019-04-04T06:13:59.007Z,11.17
2019-04-04T06:15:00.285Z,11.11
2019-04-04T06:15:56.083Z,11.15
2019-04-04T06:16:54.865Z,11.19
2019-04-04T06:17:53.523Z,11.21
2019-04-04T06:18:52.122Z,11.18
2019-04-04T06:19:50.765Z,11.19
2019-04-04T06:20:49.480Z,11.32
2019-04-04T06:21:49.890Z,11.32
2019-04-04T06:22:46.789Z,11.33
2019-04-04T06:23:45.408Z,11.32
2019-04-04T06:24:44.055Z,11.39
2019-04-04T06:25:42.597Z,11.4
2019-04-04T06:26:41.152Z,11.37
2019-04-04T06:27:40.205Z,11.43
2019-04-04T06:28:38.268Z,11.4
2019-04-04T06:29:36.932Z,11.37
2019-04-04T06:30:42.854Z,11.29
2019-04-04T06:31:34.223Z,11.29
2019-04-04T06:32:32.993Z,11.27
2019-04-04T06:33:33.050Z,11.17
2019-04-04T06:34:30.466Z,11.19
2019-04-04T06:35:29.080Z,11.35
2019-04-04T06:36:27.760Z,11.29
2019-04-04T06:37:26.388Z,11.33
2019-04-04T06:38:25.087Z,11.36
2019-04-04T06:39:25.129Z,11.35
2019-04-04T06:40:22.241Z,11.29
2019-04-04T06:41:20.790Z,11.19
2019-04-04T06:42:19.364Z,11.15
2019-04-04T06:43:17.916Z,11.18
2019-04-04T06:44:16.591Z,11.29
2019-04-04T06:45:15.958Z,11.15
2019-04-04T06:46:13.941Z,11.15
2019-04-04T06:47:12.856Z,11.17
2019-04-04T06:48:11.581Z,11.21
2019-04-04T06:49:10.124Z,11.07
2019-04-04T06:50:08.768Z,11.17
2019-04-04T06:51:07.546Z,11.21
2019-04-04T06:52:09.094Z,11.25
2019-04-04T06:53:04.910Z,11.11
2019-04-04T06:54:03.474Z,11.06
2019-04-04T06:55:02.057Z,10.99
2019-04-04T06:56:01.004Z,11.07
2019-04-04T06:56:59.439Z,11.02
2019-04-04T06:57:58.605Z,11.04
2019-04-04T06:58:57.084Z,11.17
2019-04-04T06:59:55.776Z,11.19
2019-04-04T07:00:54.958Z,11.18
2019-04-04T07:01:53.561Z,11.18
2019-04-04T07:02:54.994Z,11.04
2019-04-04T07:03:52.626Z,10.97
2019-04-04T07:04:49.794Z,10.97
2019-04-04T07:05:48.805Z,11.07
2019-04-04T07:06:47.416Z,11
2019-04-04T07:09:22.595Z,11.03
2019-04-04T07:10:22.024Z,11.03
2019-04-04T07:11:21.327Z,10.91
2019-04-04T07:12:22.468Z,10.92
2019-04-04T07:13:21.844Z,10.79
2019-04-04T07:14:15.989Z,10.71
2019-04-04T07:15:15.882Z,10.76
2019-04-04T07:16:13.517Z,10.76
2019-04-04T07:17:12.060Z,10.73
2019-04-04T07:18:12.210Z,10.85
2019-04-04T07:19:09.478Z,10.82
2019-04-04T07:20:07.983Z,10.86
2019-04-04T07:21:06.801Z,10.97
2019-04-04T07:22:05.456Z,10.92
2019-04-04T07:23:03.976Z,10.78
2019-04-04T07:24:02.847Z,10.84
2019-04-04T07:25:05.558Z,10.84
2019-04-04T07:26:00.202Z,10.76
2019-04-04T07:26:59.206Z,10.68
2019-04-04T07:27:58.086Z,10.52
2019-04-04T07:28:56.844Z,10.53
2019-04-04T07:29:56.799Z,10.63
2019-04-04T07:30:54.653Z,10.6
2019-04-04T07:31:53.312Z,10.73
2019-04-04T07:32:52.438Z,10.84
2019-04-04T07:33:51.014Z,10.86
2019-04-04T07:34:49.811Z,10.91
2019-04-04T07:35:49.566Z,10.79
2019-04-04T07:36:49.086Z,10.79
2019-04-04T07:37:46.808Z,10.79
2019-04-04T07:38:45.620Z,10.79
2019-04-04T07:39:44.667Z,10.73
2019-04-04T07:40:43.631Z,10.73
2019-04-04T07:41:44.893Z,10.59
2019-04-04T07:42:40.979Z,10.7
2019-04-04T07:43:39.894Z,10.66
2019-04-04T07:44:39.096Z,10.73
2019-04-04T07:45:37.540Z,10.68
2019-04-04T07:46:36.419Z,10.63
2019-04-04T07:47:35.116Z,10.66
2019-04-04T07:48:33.881Z,10.67
2019-04-04T07:49:32.502Z,10.94
2019-04-04T07:50:31.347Z,10.92
2019-04-04T07:51:30.120Z,10.88
2019-04-04T07:52:28.903Z,10.94
2019-04-04T07:53:28.270Z,10.84
2019-04-04T07:54:25.875Z,10.94
2019-04-04T07:55:24.649Z,10.91
2019-04-04T07:56:23.738Z,10.91
2019-04-04T07:57:22.255Z,10.85
2019-04-04T07:58:20.953Z,10.74
2019-04-04T07:59:19.730Z,10.82
2019-04-04T08:00:18.253Z,10.6
2019-04-04T08:01:17.218Z,10.7
2019-04-04T08:02:15.843Z,10.51
2019-04-04T08:03:14.719Z,10.59
2019-04-04T08:04:13.551Z,10.68
2019-04-04T08:05:13.238Z,10.59
2019-04-04T08:06:11.400Z,10.56
2019-04-04T08:07:10.318Z,10.6
2019-04-04T08:08:08.893Z,10.6
2019-04-04T08:09:07.485Z,10.7
2019-04-04T08:10:06.029Z,10.85
2019-04-04T08:11:04.695Z,10.88
2019-04-04T08:12:03.850Z,10.82
2019-04-04T08:13:02.673Z,10.94
2019-04-04T08:14:01.261Z,10.61
2019-04-04T08:15:00.140Z,10.79
2019-04-04T08:15:58.829Z,10.61
2019-04-04T08:16:57.697Z,10.61
2019-04-04T08:17:56.544Z,10.84
2019-04-04T08:18:55.268Z,10.6
2019-04-04T08:19:59.374Z,10.68
2019-04-04T08:20:53.105Z,10.61
2019-04-04T08:21:51.471Z,10.67
2019-04-04T08:22:50.030Z,10.76
2019-04-04T08:23:48.954Z,10.78
2019-04-04T08:24:47.724Z,10.82
2019-04-04T08:25:46.282Z,10.84
2019-04-04T08:26:44.957Z,10.66
2019-04-04T08:27:43.797Z,10.61
2019-04-04T08:28:42.705Z,10.55
2019-04-04T08:29:41.560Z,10.66
2019-04-04T08:30:39.898Z,10.73
2019-04-04T08:31:38.621Z,10.74
2019-04-04T08:32:37.509Z,10.4
2019-04-04T08:33:36.084Z,10.44
2019-04-04T08:34:36.368Z,10.55
2019-04-04T08:35:33.593Z,10.51
2019-04-04T08:36:32.368Z,10.61
2019-04-04T08:37:31.849Z,10.64
2019-04-04T08:38:30.431Z,10.59
2019-04-04T08:39:29.350Z,10.63
2019-04-04T08:40:27.976Z,10.59
2019-04-04T08:41:26.689Z,10.56
2019-04-04T08:42:25.355Z,10.61
2019-04-04T08:43:23.976Z,10.55
2019-04-04T08:44:22.692Z,10.53
2019-04-04T08:45:21.405Z,10.45
2019-04-04T08:46:20.362Z,10.53
2019-04-04T08:47:19.477Z,10.48
2019-04-04T08:48:17.909Z,10.55
2019-04-04T08:49:16.536Z,10.47
2019-04-04T08:50:16.143Z,10.53
2019-04-04T08:51:14.784Z,10.44
2019-04-04T08:52:16.720Z,10.42
2019-04-04T08:53:12.050Z,10.33
2019-04-04T08:54:10.942Z,10.27
2019-04-04T08:56:51.267Z,10.41
2019-04-04T08:57:49.911Z,10.36
2019-04-04T08:58:51.406Z,10.34
2019-04-04T08:59:47.235Z,10.44
2019-04-04T09:02:25.383Z,10.51
2019-04-04T09:03:24.047Z,10.48
2019-04-04T09:04:24.132Z,10.59
2019-04-04T09:05:21.299Z,10.68
2019-04-04T09:06:19.845Z,10.52
2019-04-04T09:07:18.416Z,10.71
2019-04-04T09:08:17.339Z,10.85
2019-04-04T09:09:15.945Z,10.68
2019-04-04T09:10:14.525Z,10.59
2019-04-04T09:11:13.356Z,10.64
2019-04-04T09:12:12.101Z,10.63
2019-04-04T09:13:11.600Z,10.52
2019-04-04T09:14:10.154Z,10.44
2019-04-04T09:15:08.900Z,10.3
2019-04-04T09:16:07.770Z,10.15
2019-04-04T09:17:06.244Z,10.38
2019-04-04T09:18:04.857Z,10.34
2019-04-04T09:19:03.838Z,10.51
2019-04-04T09:20:02.556Z,10.52
2019-04-04T09:21:01.185Z,10.64
2019-04-04T09:21:59.723Z,10.67
2019-04-04T09:22:58.340Z,10.79
2019-04-04T09:23:57.001Z,10.85
2019-04-04T09:24:55.676Z,10.86
2019-04-04T09:26:04.881Z,10.78
2019-04-04T09:26:53.091Z,10.84
2019-04-04T09:27:51.817Z,10.92
2019-04-04T09:28:50.312Z,10.92
2019-04-04T09:29:48.924Z,10.92
2019-04-04T09:30:47.832Z,10.7
2019-04-04T09:31:46.324Z,10.68
2019-04-04T09:32:45.248Z,10.56
2019-04-04T09:33:43.795Z,10.38
2019-04-04T09:34:42.412Z,10.33
2019-04-04T09:35:40.920Z,10.33
2019-04-04T09:36:39.557Z,10.51
2019-04-04T09:37:38.250Z,10.45
2019-04-04T09:38:36.950Z,10.36
2019-04-04T09:39:35.785Z,10.48
2019-04-04T09:40:34.835Z,10.52
2019-04-04T09:41:33.637Z,10.74
2019-04-04T09:42:32.293Z,10.76
2019-04-04T09:43:30.906Z,10.85
2019-04-04T09:44:29.938Z,10.96
2019-04-04T09:45:28.842Z,11.09
2019-04-04T09:46:27.566Z,10.94
2019-04-04T09:47:26.205Z,10.84
2019-04-04T09:48:24.867Z,10.94
2019-04-04T09:49:23.698Z,10.91
2019-04-04T09:50:22.521Z,10.94
2019-04-04T09:51:21.162Z,10.91
2019-04-04T09:52:19.750Z,10.81
2019-04-04T09:53:18.424Z,10.78
2019-04-04T09:54:19.316Z,10.79
2019-04-04T09:55:15.946Z,10.94
2019-04-04T09:56:14.678Z,10.94
2019-04-04T09:57:13.448Z,10.96
2019-04-04T09:58:12.005Z,10.79
2019-04-04T09:59:10.854Z,10.88
2019-04-04T10:00:09.445Z,10.96
2019-04-04T10:01:07.998Z,10.94
2019-04-04T10:02:06.668Z,11.11
2019-04-04T10:03:05.665Z,10.89
2019-04-04T10:04:04.059Z,10.88
2019-04-04T10:05:05.709Z,11.06
2019-04-04T10:06:01.541Z,10.96
2019-04-04T10:07:00.332Z,10.96
2019-04-04T10:07:58.925Z,11
2019-04-04T10:08:57.502Z,10.96
2019-04-04T10:09:56.163Z,10.76
2019-04-04T10:10:54.783Z,10.78
2019-04-04T10:11:53.500Z,10.85
2019-04-04T10:12:52.043Z,10.96
2019-04-04T10:13:50.740Z,10.94
2019-04-04T10:14:49.447Z,10.99
2019-04-04T10:15:47.979Z,10.99
2019-04-04T10:16:46.530Z,11.06
2019-04-04T10:17:45.301Z,11.09
2019-04-04T10:18:43.848Z,11.1
2019-04-04T10:19:42.377Z,11.1
2019-04-04T10:20:41.272Z,11.15
2019-04-04T10:21:39.794Z,11
2019-04-04T10:22:38.373Z,11.19
2019-04-04T10:23:37.020Z,11.18
2019-04-04T10:24:35.651Z,11.17
2019-04-04T10:25:34.216Z,11.14
2019-04-04T10:26:32.732Z,11.07
2019-04-04T10:29:13.023Z,11.17
2019-04-04T10:31:13.840Z,11.25
2019-04-04T10:33:13.444Z,11.33
2019-04-04T10:34:11.973Z,11.32
2019-04-04T10:35:55.432Z,11.19
2019-04-04T10:38:11.359Z,11.33
2019-04-04T10:39:09.897Z,11.24
2019-04-04T10:40:08.431Z,11.37
2019-04-04T10:41:07.270Z,11.18
2019-04-04T10:42:05.813Z,11.24
2019-04-04T10:43:04.375Z,11.24
2019-04-04T10:44:03.068Z,11.18
2019-04-04T10:45:01.687Z,10.84
2019-04-04T10:46:00.241Z,10.89
2019-04-04T10:46:59.028Z,10.86
2019-04-04T10:47:57.689Z,10.94
2019-04-04T10:48:56.290Z,10.86
2019-04-04T10:50:09.752Z,11.04
2019-04-04T10:52:28.921Z,11.18
2019-04-04T10:53:27.625Z,11.19
2019-04-04T10:54:26.149Z,11.36
2019-04-04T10:55:24.683Z,11.25
2019-04-04T10:57:09.165Z,11.44
2019-04-04T10:58:07.854Z,11.43
2019-04-04T10:59:06.469Z,11.42
2019-04-04T11:00:05.365Z,11.47
2019-04-04T11:01:03.938Z,11.49
2019-04-04T11:02:02.453Z,11.49
2019-04-04T11:03:01.079Z,11.4
2019-04-04T11:03:59.692Z,11.32
2019-04-04T11:04:58.285Z,11.46
2019-04-04T11:05:56.915Z,11.39
2019-04-04T11:06:55.530Z,11.44
2019-04-04T11:07:56.594Z,11.61
2019-04-04T11:08:52.949Z,11.62
2019-04-04T11:09:51.583Z,11.65
2019-04-04T11:10:50.328Z,11.73
2019-04-04T11:11:48.688Z,11.79
2019-04-04T11:12:47.219Z,11.83
2019-04-04T11:13:45.740Z,11.91
2019-04-04T11:14:44.295Z,11.96
2019-04-04T11:15:42.847Z,12.01
2019-04-04T11:16:41.397Z,12.05
2019-04-04T11:17:39.939Z,12.01
2019-04-04T11:18:38.659Z,12.12
2019-04-04T11:19:37.276Z,12.04
2019-04-04T11:20:35.866Z,11.83
2019-04-04T11:21:34.490Z,11.91
2019-04-04T11:22:33.263Z,11.55
2019-04-04T11:23:31.847Z,11.7
2019-04-04T11:24:30.386Z,11.72
2019-04-04T11:25:29.033Z,11.61
2019-04-04T11:26:27.600Z,11.54
2019-04-04T11:27:26.111Z,11.57
2019-04-04T11:28:24.902Z,11.6
2019-04-04T11:29:23.565Z,11.35
2019-04-04T11:32:03.970Z,11.15
2019-04-04T11:33:02.535Z,11.14
2019-04-04T11:34:01.185Z,11.29
2019-04-04T11:34:59.843Z,11.29
2019-04-04T11:35:58.452Z,11.29
2019-04-04T11:44:41.564Z,11.28
2019-04-04T11:45:40.114Z,11.35
2019-04-04T11:46:38.702Z,11.4
2019-04-04T11:47:37.289Z,11.46
2019-04-04T11:48:35.878Z,11.19
2019-04-04T11:51:01.768Z,11.28
2019-04-04T11:52:00.316Z,11.39
2019-04-04T11:52:58.980Z,11.49
2019-04-04T11:53:57.842Z,11.57
2019-04-04T11:54:56.399Z,11.43
2019-04-04T11:55:55.059Z,11.42
2019-04-04T11:56:53.684Z,11.44
2019-04-04T11:57:52.246Z,11.42
2019-04-04T11:58:50.926Z,11.44
2019-04-04T11:59:49.565Z,11.29
2019-04-04T12:00:48.119Z,11.36
2019-04-04T12:01:46.705Z,11.37
2019-04-04T12:02:45.427Z,11.42
2019-04-04T12:03:43.955Z,11.4
2019-04-04T12:04:42.631Z,11.35
2019-04-04T12:05:41.422Z,11.29
2019-04-04T12:06:40.048Z,11.06
2019-04-04T12:07:38.786Z,10.92
2019-04-04T12:08:37.414Z,10.7
2019-04-04T12:09:35.978Z,10.78
2019-04-04T12:10:34.526Z,10.82
2019-04-04T12:11:33.140Z,10.67
2019-04-04T12:12:31.665Z,10.79
2019-04-04T12:13:30.227Z,10.71
2019-04-04T12:14:28.808Z,10.66
2019-04-04T12:15:27.676Z,10.86
2019-04-04T12:16:26.261Z,10.82
2019-04-04T12:17:24.996Z,10.74
2019-04-04T12:18:23.649Z,10.91
2019-04-04T12:19:22.336Z,10.78
2019-04-04T12:20:21.885Z,10.79
2019-04-04T12:21:19.847Z,10.61
2019-04-04T12:22:18.681Z,10.34
2019-04-04T12:23:17.307Z,10.45
2019-04-04T12:24:16.086Z,10.42
2019-04-04T12:25:14.880Z,10.59
2019-04-04T12:26:13.653Z,10.61
2019-04-04T12:27:12.285Z,10.64
2019-04-04T12:28:11.007Z,10.61
2019-04-04T12:29:09.746Z,10.53
2019-04-04T12:30:08.464Z,10.59
2019-04-04T12:31:07.115Z,10.53
2019-04-04T12:32:05.817Z,10.67
2019-04-04T12:33:04.375Z,10.71
2019-04-04T12:34:03.156Z,10.78
2019-04-04T12:35:01.870Z,10.76
2019-04-04T12:36:00.549Z,10.82
2019-04-04T12:36:59.432Z,10.7
2019-04-04T12:37:58.148Z,10.7
2019-04-04T12:38:56.721Z,10.78
2019-04-04T12:39:55.547Z,10.81
2019-04-04T12:40:54.270Z,10.63
2019-04-04T12:41:52.866Z,10.56
2019-04-04T12:42:51.473Z,10.53
2019-04-04T12:43:50.068Z,10.56
2019-04-04T12:44:48.766Z,10.68
2019-04-04T12:45:47.333Z,10.45
2019-04-04T12:46:45.874Z,10.36
2019-04-04T12:47:44.452Z,10.56
2019-04-04T12:48:43.347Z,10.42
2019-04-04T12:49:41.938Z,10.53
2019-04-04T12:50:40.490Z,10.56
2019-04-04T12:51:39.084Z,10.51
2019-04-04T12:52:37.812Z,10.68
2019-04-04T12:53:36.331Z,10.82
2019-04-04T12:54:35.093Z,10.99
2019-04-04T12:55:33.757Z,10.91
2019-04-04T12:56:32.539Z,10.99
2019-04-04T12:57:31.473Z,10.94
2019-04-04T12:58:30.178Z,10.79
2019-04-04T12:59:29.043Z,10.78
2019-04-04T13:00:27.755Z,10.73
2019-04-04T13:01:26.212Z,10.48
2019-04-04T13:02:25.076Z,10.63
2019-04-04T13:03:23.688Z,10.53
2019-04-04T13:04:30.893Z,10.59
2019-04-04T13:05:21.607Z,10.66
2019-04-04T13:06:20.151Z,10.82
2019-04-04T13:07:19.092Z,10.74
2019-04-04T13:08:17.907Z,10.7
2019-04-04T13:09:16.741Z,10.74
2019-04-04T13:10:15.434Z,10.86
2019-04-04T13:11:13.984Z,10.82
2019-04-04T13:12:12.659Z,10.94
2019-04-04T13:13:11.489Z,10.63
2019-04-04T13:14:09.974Z,10.52
2019-04-04T13:15:08.852Z,10.4
2019-04-04T13:16:07.457Z,10.27
2019-04-04T13:17:06.197Z,10.33
2019-04-04T13:18:04.965Z,10.4
2019-04-04T13:19:03.572Z,10.52
2019-04-04T13:21:48.061Z,10.63
2019-04-04T13:23:47.617Z,10.51